createdAt,value
2022-08-30T00:00:35.147Z,15.80
2022-08-30T00:03:02.588Z,15.80
2022-08-30T00:05:30.321Z,15.70
2022-08-30T00:07:57.833Z,15.70
2022-08-30T00:10:25.743Z,15.80
2022-08-30T00:12:52.384Z,15.80
2022-08-30T00:15:20.320Z,15.80
2022-08-30T00:17:46.937Z,15.70
2022-08-30T00:20:18.136Z,15.80
2022-08-30T00:22:44.953Z,15.70
2022-08-30T00:25:12.497Z,15.70
2022-08-30T00:27:39.206Z,15.70
2022-08-30T00:30:07.062Z,15.80
2022-08-30T00:32:33.673Z,15.70
2022-08-30T00:35:00.319Z,15.70
2022-08-30T00:37:26.939Z,15.70
2022-08-30T00:39:53.553Z,15.70
2022-08-30T00:42:21.135Z,15.70
2022-08-30T00:44:48.502Z,15.80
2022-08-30T00:47:15.235Z,15.80
2022-08-30T00:49:46.312Z,15.70
2022-08-30T00:52:13.762Z,15.60
2022-08-30T00:54:43.256Z,15.60
2022-08-30T00:57:11.571Z,15.60
2022-08-30T00:59:38.980Z,15.50
2022-08-30T01:02:05.859Z,15.50
2022-08-30T01:04:33.850Z,15.50
2022-08-30T01:07:00.585Z,15.60
2022-08-30T01:09:27.421Z,15.60
2022-08-30T01:11:54.048Z,15.60
2022-08-30T01:14:20.859Z,15.50
2022-08-30T01:16:48.057Z,15.50
2022-08-30T01:19:56.782Z,15.50
2022-08-30T01:22:36.383Z,15.40
2022-08-30T01:25:04.856Z,15.50
2022-08-30T01:27:38.178Z,15.50
2022-08-30T01:30:06.119Z,15.50
2022-08-30T01:32:39.702Z,15.50
2022-08-30T01:35:06.733Z,15.40
2022-08-30T01:37:35.122Z,15.40
2022-08-30T01:40:02.114Z,15.30
2022-08-30T01:42:28.922Z,15.20
2022-08-30T01:44:55.660Z,15.00
2022-08-30T01:47:22.270Z,15.00
2022-08-30T01:49:48.943Z,15.00
2022-08-30T01:52:17.528Z,15.10
2022-08-30T01:54:44.987Z,15.10
2022-08-30T01:57:15.404Z,15.20
2022-08-30T01:59:43.808Z,15.10
2022-08-30T02:02:10.483Z,15.10
2022-08-30T02:04:37.109Z,15.10
2022-08-30T02:07:04.788Z,15.10
2022-08-30T02:09:31.422Z,15.10
2022-08-30T02:11:58.010Z,15.10
2022-08-30T02:14:25.070Z,15.10
2022-08-30T02:16:51.790Z,15.10
2022-08-30T02:19:18.463Z,15.10
2022-08-30T02:21:45.066Z,15.00
2022-08-30T02:24:11.751Z,15.00
2022-08-30T02:26:38.341Z,15.00
2022-08-30T02:29:05.891Z,15.00
2022-08-30T02:31:32.535Z,14.90
2022-08-30T02:33:59.147Z,14.90
2022-08-30T02:36:25.822Z,14.90
2022-08-30T02:38:52.855Z,14.90
2022-08-30T02:41:20.308Z,15.00
2022-08-30T02:43:47.135Z,15.00
2022-08-30T02:46:14.539Z,14.90
2022-08-30T02:48:41.247Z,14.90
2022-08-30T02:51:11.525Z,14.80
2022-08-30T02:53:39.393Z,14.80
2022-08-30T02:56:06.116Z,14.70
2022-08-30T02:58:32.726Z,14.60
2022-08-30T03:00:59.395Z,14.60
2022-08-30T03:03:26.153Z,14.60
2022-08-30T03:05:52.805Z,14.40
2022-08-30T03:08:19.413Z,14.40
2022-08-30T03:10:45.996Z,14.40
2022-08-30T03:13:12.641Z,14.50
2022-08-30T03:15:39.470Z,14.60
2022-08-30T03:18:06.414Z,14.60
2022-08-30T03:20:33.427Z,14.60
2022-08-30T03:23:00.080Z,14.60
2022-08-30T03:25:27.175Z,14.50
2022-08-30T03:27:53.813Z,14.40
2022-08-30T03:30:21.176Z,14.40
2022-08-30T03:32:48.827Z,14.40
2022-08-30T03:35:18.566Z,14.50
2022-08-30T03:37:46.083Z,14.50
2022-08-30T03:40:14.752Z,14.40
2022-08-30T03:42:43.367Z,14.40
2022-08-30T03:45:11.900Z,14.40
2022-08-30T03:47:38.555Z,14.40
2022-08-30T03:50:09.107Z,14.40
2022-08-30T03:52:35.755Z,14.40
2022-08-30T03:55:02.371Z,14.40
2022-08-30T03:57:29.332Z,14.30
2022-08-30T03:59:55.979Z,14.30
2022-08-30T04:02:22.818Z,14.30
2022-08-30T04:04:49.786Z,14.20
2022-08-30T04:07:16.802Z,14.20
2022-08-30T04:09:43.399Z,14.30
2022-08-30T04:12:10.003Z,14.20
2022-08-30T04:14:36.600Z,14.30
2022-08-30T04:17:03.321Z,14.30
2022-08-30T04:19:29.923Z,14.30
2022-08-30T04:21:56.531Z,14.30
2022-08-30T04:24:23.440Z,14.30
2022-08-30T04:26:50.062Z,14.40
2022-08-30T04:29:16.658Z,14.30
2022-08-30T04:31:43.949Z,14.30
2022-08-30T04:34:12.395Z,14.10
2022-08-30T04:36:39.183Z,14.00
2022-08-30T04:39:06.869Z,14.00
2022-08-30T04:41:33.942Z,14.00
2022-08-30T04:44:02.615Z,14.00
2022-08-30T04:46:29.981Z,14.10
2022-08-30T04:48:56.770Z,14.10
2022-08-30T04:51:23.450Z,14.10
2022-08-30T04:53:50.043Z,14.20
2022-08-30T04:56:19.650Z,14.20
2022-08-30T04:58:47.267Z,14.20
2022-08-30T05:01:18.791Z,14.20
2022-08-30T05:03:47.557Z,14.20
2022-08-30T05:06:14.839Z,14.20
2022-08-30T05:08:41.466Z,14.20
2022-08-30T05:11:14.217Z,14.20
2022-08-30T05:13:40.809Z,14.20
2022-08-30T05:16:08.372Z,14.20
2022-08-30T05:18:36.407Z,14.20
2022-08-30T05:21:14.930Z,14.30
2022-08-30T05:23:42.307Z,14.40
2022-08-30T05:26:12.359Z,14.50
2022-08-30T05:28:39.580Z,14.50
2022-08-30T05:31:19.151Z,14.60
2022-08-30T05:33:46.509Z,14.70
2022-08-30T05:36:15.051Z,14.80
2022-08-30T05:38:42.290Z,14.90
2022-08-30T05:41:10.743Z,15.00
2022-08-30T05:43:38.163Z,14.90
2022-08-30T05:46:11.224Z,14.90
2022-08-30T05:48:38.684Z,14.90
2022-08-30T05:51:11.063Z,15.00
2022-08-30T05:53:38.935Z,15.10
2022-08-30T05:56:09.110Z,15.10
2022-08-30T05:58:36.383Z,15.20
2022-08-30T06:01:03.994Z,15.30
2022-08-30T06:03:30.763Z,15.50
2022-08-30T06:05:57.400Z,15.80
2022-08-30T06:08:23.998Z,16.10
2022-08-30T06:10:50.841Z,16.20
2022-08-30T06:13:17.583Z,16.30
2022-08-30T06:15:44.398Z,16.30
2022-08-30T06:18:13.205Z,16.50
2022-08-30T06:20:44.957Z,16.70
2022-08-30T06:23:11.575Z,16.90
2022-08-30T06:25:41.321Z,17.00
2022-08-30T06:28:09.122Z,17.20
2022-08-30T06:30:36.126Z,17.40
2022-08-30T06:33:02.805Z,17.50
2022-08-30T06:35:32.693Z,17.50
2022-08-30T06:38:02.399Z,17.60
2022-08-30T06:40:29.183Z,17.70
2022-08-30T06:42:56.108Z,17.80
2022-08-30T06:45:22.732Z,17.90
2022-08-30T06:47:49.454Z,18.00
2022-08-30T06:50:17.551Z,18.30
2022-08-30T06:52:45.385Z,18.50
2022-08-30T06:55:16.497Z,18.70
2022-08-30T06:57:43.575Z,18.80
2022-08-30T07:00:13.188Z,18.80
2022-08-30T07:02:40.312Z,19.00
2022-08-30T07:05:08.094Z,19.00
2022-08-30T07:07:35.370Z,19.00
2022-08-30T07:10:04.299Z,19.20
2022-08-30T07:12:30.907Z,19.30
2022-08-30T07:14:57.786Z,19.60
2022-08-30T07:17:24.418Z,19.70
2022-08-30T07:19:51.093Z,19.60
2022-08-30T07:22:17.729Z,19.50
2022-08-30T07:24:44.377Z,19.70
2022-08-30T07:27:11.031Z,19.90
2022-08-30T07:29:37.711Z,19.90
2022-08-30T07:32:04.920Z,20.20
2022-08-30T07:34:31.563Z,20.30
2022-08-30T07:36:58.274Z,20.50
2022-08-30T07:39:24.936Z,20.60
2022-08-30T07:41:51.622Z,20.60
2022-08-30T07:44:18.253Z,20.60
2022-08-30T07:46:44.969Z,20.90
2022-08-30T07:49:12.175Z,21.10
2022-08-30T07:51:40.392Z,21.30
2022-08-30T07:54:07.473Z,21.50
2022-08-30T07:56:34.497Z,21.60
2022-08-30T07:59:01.070Z,21.60
2022-08-30T08:01:27.761Z,21.50
2022-08-30T08:03:54.395Z,21.50
2022-08-30T08:06:22.456Z,21.70
2022-08-30T08:08:49.892Z,21.80
2022-08-30T08:11:24.919Z,22.10
2022-08-30T08:13:54.322Z,22.20
2022-08-30T08:16:23.116Z,22.30
2022-08-30T08:18:49.815Z,22.40
2022-08-30T08:21:16.821Z,22.40
2022-08-30T08:23:43.745Z,22.40
2022-08-30T08:26:10.413Z,22.50
2022-08-30T08:28:37.055Z,22.60
2022-08-30T08:31:03.842Z,22.60
2022-08-30T08:33:30.532Z,22.90
2022-08-30T08:35:57.127Z,23.10
2022-08-30T08:38:23.835Z,23.10
2022-08-30T08:41:06.074Z,23.20
2022-08-30T08:43:36.780Z,23.30
2022-08-30T08:46:26.088Z,23.50
2022-08-30T08:49:01.495Z,23.60
2022-08-30T08:51:30.578Z,23.80
2022-08-30T08:54:21.071Z,23.90
2022-08-30T08:56:47.825Z,24.00
2022-08-30T08:59:15.665Z,24.10
2022-08-30T09:01:46.392Z,24.00
2022-08-30T09:04:17.212Z,24.10
2022-08-30T09:07:30.286Z,24.30
2022-08-30T09:09:58.527Z,24.50
2022-08-30T09:12:25.119Z,24.50
2022-08-30T09:15:01.314Z,24.50
2022-08-30T09:17:28.605Z,24.70
2022-08-30T09:19:55.719Z,24.80
2022-08-30T09:22:28.528Z,24.90
2022-08-30T09:25:06.521Z,25.10
2022-08-30T09:27:39.783Z,25.20
2022-08-30T09:30:27.398Z,25.40
2022-08-30T09:33:02.831Z,25.50
2022-08-30T09:35:34.823Z,25.50
2022-08-30T09:38:16.734Z,25.40
2022-08-30T09:40:53.117Z,25.40
2022-08-30T09:43:25.687Z,25.40
2022-08-30T09:46:01.613Z,25.60
2022-08-30T09:48:43.071Z,25.70
2022-08-30T09:51:10.539Z,25.90
2022-08-30T09:54:16.743Z,25.80
2022-08-30T09:57:04.570Z,26.00
2022-08-30T10:00:04.741Z,26.20
2022-08-30T10:02:41.524Z,26.00
2022-08-30T10:05:47.111Z,25.90
2022-08-30T10:08:51.056Z,26.10
2022-08-30T10:11:33.029Z,26.10
2022-08-30T10:14:24.566Z,26.20
2022-08-30T10:17:06.699Z,26.40
2022-08-30T10:20:01.164Z,26.30
2022-08-30T10:22:36.907Z,26.40
2022-08-30T10:25:31.884Z,26.50
2022-08-30T10:28:09.442Z,26.80
2022-08-30T10:30:42.198Z,26.70
2022-08-30T10:33:17.270Z,26.80
2022-08-30T10:35:47.933Z,26.90
2022-08-30T10:38:27.759Z,27.00
2022-08-30T10:41:03.329Z,27.00
2022-08-30T10:43:46.070Z,27.00
2022-08-30T10:46:51.999Z,27.20
2022-08-30T10:49:22.693Z,27.10
2022-08-30T10:52:00.838Z,26.90
2022-08-30T10:54:35.150Z,27.10
2022-08-30T10:57:01.800Z,27.20
2022-08-30T10:59:28.903Z,27.50
2022-08-30T11:02:29.127Z,27.60
2022-08-30T11:05:16.929Z,27.40
2022-08-30T11:08:28.272Z,27.40
2022-08-30T11:11:13.987Z,27.50
2022-08-30T11:13:41.868Z,27.80
2022-08-30T11:16:12.939Z,27.80
2022-08-30T11:18:52.356Z,27.90
2022-08-30T11:21:36.196Z,28.10
2022-08-30T11:24:10.847Z,28.20
2022-08-30T11:26:47.254Z,28.10
2022-08-30T11:29:34.564Z,28.20
2022-08-30T11:32:13.521Z,28.20
2022-08-30T11:34:46.422Z,28.20
2022-08-30T11:37:34.427Z,28.20
2022-08-30T11:40:06.207Z,28.30
2022-08-30T11:42:42.172Z,28.20
2022-08-30T11:45:40.971Z,28.40
2022-08-30T11:48:28.647Z,28.50
2022-08-30T11:51:10.855Z,28.50
2022-08-30T11:53:54.691Z,28.50
2022-08-30T11:56:48.262Z,28.60
2022-08-30T11:59:34.485Z,28.60
2022-08-30T12:02:01.357Z,28.60
2022-08-30T12:04:45.650Z,28.80
2022-08-30T12:07:51.063Z,28.80
2022-08-30T12:10:47.231Z,28.90
2022-08-30T12:13:35.597Z,29.10
2022-08-30T12:16:04.928Z,29.20
2022-08-30T12:18:37.376Z,29.10
2022-08-30T12:21:14.534Z,28.90
2022-08-30T12:24:04.686Z,29.20
2022-08-30T12:26:41.248Z,29.00
2022-08-30T12:29:20.852Z,28.80
2022-08-30T12:31:52.989Z,28.70
2022-08-30T12:34:30.559Z,28.60
2022-08-30T12:37:04.505Z,28.70
2022-08-30T12:39:43.551Z,28.80
2022-08-30T12:42:11.599Z,29.00
2022-08-30T12:44:44.939Z,29.00
2022-08-30T12:47:13.111Z,29.20
2022-08-30T12:49:41.963Z,29.10
2022-08-30T12:52:26.619Z,29.10
2022-08-30T12:54:55.823Z,29.10
2022-08-30T12:57:37.711Z,28.80
2022-08-30T13:00:10.865Z,29.00
2022-08-30T13:02:49.933Z,29.00
2022-08-30T13:05:45.567Z,29.10
2022-08-30T13:08:32.725Z,29.00
2022-08-30T13:11:38.193Z,28.90
2022-08-30T13:14:37.199Z,28.80
2022-08-30T13:17:09.363Z,28.90
2022-08-30T13:19:39.235Z,28.90
2022-08-30T13:22:29.127Z,29.10
2022-08-30T13:24:56.092Z,29.10
2022-08-30T13:27:23.803Z,29.10
2022-08-30T13:29:51.154Z,29.10
2022-08-30T13:32:18.594Z,29.20
2022-08-30T13:34:45.577Z,28.90
2022-08-30T13:40:05.005Z,28.90
2022-08-30T13:42:32.291Z,28.70
2022-08-30T13:44:59.259Z,28.80
2022-08-30T13:47:34.820Z,28.70
2022-08-30T13:50:02.247Z,28.40
2022-08-30T13:52:28.995Z,28.40
2022-08-30T13:54:57.815Z,28.30
2022-08-30T14:00:17.147Z,28.10
2022-08-30T14:02:49.036Z,28.00
2022-08-30T14:08:44.307Z,28.20
2022-08-30T14:10:55.834Z,28.20
2022-08-30T14:13:22.641Z,28.30
2022-08-30T14:16:26.630Z,28.40
2022-08-30T14:18:38.456Z,28.30
2022-08-30T14:21:05.179Z,28.30
2022-08-30T14:23:32.278Z,28.20
2022-08-30T14:26:00.240Z,28.20
2022-08-30T14:28:27.246Z,28.10
2022-08-30T14:30:54.133Z,28.00
2022-08-30T14:33:20.737Z,28.00
2022-08-30T14:35:47.377Z,27.90
2022-08-30T14:38:14.012Z,28.00
2022-08-30T14:40:40.695Z,28.00
2022-08-30T14:43:07.385Z,27.70
2022-08-30T14:45:34.014Z,27.80
2022-08-30T14:48:00.628Z,27.80
2022-08-30T14:50:27.933Z,27.50
2022-08-30T14:52:54.655Z,27.60
2022-08-30T14:55:21.375Z,27.40
2022-08-30T14:57:47.968Z,27.50
2022-08-30T15:00:15.691Z,27.50
2022-08-30T15:02:43.269Z,27.50
2022-08-30T15:05:09.965Z,27.40
2022-08-30T15:07:36.867Z,27.40
2022-08-30T15:10:05.468Z,27.20
2022-08-30T15:12:32.126Z,27.00
2022-08-30T15:14:58.805Z,27.20
2022-08-30T15:17:25.597Z,27.00
2022-08-30T15:19:52.375Z,26.90
2022-08-30T15:22:19.251Z,27.00
2022-08-30T15:24:49.057Z,27.00
2022-08-30T15:27:17.533Z,27.00
2022-08-30T15:29:44.121Z,27.10
2022-08-30T15:32:10.916Z,26.90
2022-08-30T15:34:37.534Z,26.90
2022-08-30T15:37:04.191Z,27.00
2022-08-30T15:39:31.933Z,27.00
2022-08-30T15:42:01.017Z,27.10
2022-08-30T15:44:29.185Z,27.00
2022-08-30T15:46:55.885Z,27.00
2022-08-30T15:49:24.429Z,27.10
2022-08-30T15:51:54.499Z,27.10
2022-08-30T15:54:23.486Z,27.10
2022-08-30T15:56:50.398Z,27.00
2022-08-30T15:59:17.043Z,27.20
2022-08-30T16:01:45.416Z,27.00
2022-08-30T16:04:15.587Z,27.10
2022-08-30T16:06:42.361Z,27.20
2022-08-30T16:09:10.247Z,27.30
2022-08-30T16:11:37.991Z,27.40
2022-08-30T16:14:06.200Z,27.40
2022-08-30T16:16:33.569Z,27.30
2022-08-30T16:19:01.579Z,27.30
2022-08-30T16:21:30.910Z,27.30
2022-08-30T16:23:59.971Z,27.30
2022-08-30T16:26:28.590Z,27.20
2022-08-30T16:28:55.889Z,27.00
2022-08-30T16:31:24.316Z,26.90
2022-08-30T16:33:53.070Z,26.80
2022-08-30T16:36:20.593Z,26.70
2022-08-30T16:38:48.475Z,26.60
2022-08-30T16:41:21.074Z,26.40
2022-08-30T16:43:49.763Z,26.30
2022-08-30T16:46:27.409Z,26.20
2022-08-30T16:48:57.584Z,26.10
2022-08-30T16:51:27.378Z,25.90
2022-08-30T16:53:59.029Z,25.80
2022-08-30T16:56:27.666Z,25.70
2022-08-30T16:59:01.272Z,25.70
2022-08-30T17:01:34.998Z,25.60
2022-08-30T17:04:02.649Z,25.50
2022-08-30T17:06:29.417Z,25.40
2022-08-30T17:08:56.937Z,25.30
2022-08-30T17:11:24.438Z,25.30
2022-08-30T17:13:51.186Z,25.20
2022-08-30T17:16:22.524Z,25.20
2022-08-30T17:18:55.585Z,25.20
2022-08-30T17:21:22.375Z,25.10
2022-08-30T17:23:49.987Z,25.00
2022-08-30T17:26:17.237Z,24.90
2022-08-30T17:28:44.170Z,24.80
2022-08-30T17:31:11.011Z,24.80
2022-08-30T17:33:37.852Z,24.70
2022-08-30T17:36:08.811Z,24.60
2022-08-30T17:38:35.658Z,24.60
2022-08-30T17:41:09.245Z,24.60
2022-08-30T17:43:37.147Z,24.60
2022-08-30T17:46:05.107Z,24.50
2022-08-30T17:48:31.825Z,24.30
2022-08-30T17:50:58.564Z,24.40
2022-08-30T17:53:25.475Z,24.30
2022-08-30T17:55:52.083Z,24.20
2022-08-30T17:58:18.818Z,24.20
2022-08-30T18:00:48.539Z,24.10
2022-08-30T18:03:17.645Z,24.00
2022-08-30T18:05:44.312Z,23.90
2022-08-30T18:08:13.962Z,23.90
2022-08-30T18:10:40.712Z,23.70
2022-08-30T18:13:07.299Z,23.70
2022-08-30T18:15:34.042Z,23.60
2022-08-30T18:18:00.739Z,23.50
2022-08-30T18:20:27.681Z,23.40
2022-08-30T18:22:58.060Z,23.40
2022-08-30T18:25:24.670Z,23.30
2022-08-30T18:27:58.094Z,23.10
2022-08-30T18:30:31.220Z,23.10
2022-08-30T18:33:00.701Z,22.90
2022-08-30T18:35:27.490Z,22.80
2022-08-30T18:37:54.366Z,22.70
2022-08-30T18:40:21.095Z,22.60
2022-08-30T18:42:47.825Z,22.50
2022-08-30T18:45:15.666Z,22.50
2022-08-30T18:47:42.855Z,22.40
2022-08-30T18:50:09.638Z,22.30
2022-08-30T18:52:36.258Z,22.20
2022-08-30T18:55:02.923Z,22.10
2022-08-30T18:57:32.853Z,22.00
2022-08-30T18:59:59.482Z,22.00
2022-08-30T19:02:27.719Z,22.00
2022-08-30T19:04:54.928Z,21.90
2022-08-30T19:07:22.514Z,21.80
2022-08-30T19:09:55.702Z,21.80
2022-08-30T19:12:25.857Z,21.80
2022-08-30T19:14:54.238Z,21.70
2022-08-30T19:17:22.915Z,21.60
2022-08-30T19:19:52.339Z,21.60
2022-08-30T19:22:21.494Z,21.50
2022-08-30T19:24:49.843Z,21.50
2022-08-30T19:27:18.962Z,21.30
2022-08-30T19:29:53.113Z,21.40
2022-08-30T19:32:20.875Z,21.40
2022-08-30T19:34:47.515Z,21.40
2022-08-30T19:40:01.046Z,21.30
2022-08-30T19:42:27.806Z,21.20
2022-08-30T19:44:54.647Z,21.20
2022-08-30T19:47:21.268Z,21.20
2022-08-30T19:49:47.933Z,21.10
2022-08-30T19:52:14.906Z,21.00
2022-08-30T19:54:41.507Z,21.00
2022-08-30T19:57:08.215Z,21.00
2022-08-30T19:59:34.830Z,21.00
2022-08-30T20:02:02.820Z,21.00
2022-08-30T20:04:29.528Z,20.90
2022-08-30T20:06:56.154Z,20.90
2022-08-30T20:09:23.554Z,20.90
2022-08-30T20:11:55.048Z,20.80
2022-08-30T20:14:21.974Z,20.80
2022-08-30T20:16:48.591Z,20.70
2022-08-30T20:19:15.419Z,20.70
2022-08-30T20:21:42.044Z,20.70
2022-08-30T20:24:09.577Z,20.60
2022-08-30T20:26:37.401Z,20.60
2022-08-30T20:29:05.106Z,20.60
2022-08-30T20:31:31.896Z,20.50
2022-08-30T20:33:58.593Z,20.40
2022-08-30T20:36:25.362Z,20.30
2022-08-30T20:38:52.087Z,20.30
2022-08-30T20:41:19.447Z,20.20
2022-08-30T20:43:46.763Z,20.20
2022-08-30T20:46:16.702Z,20.20
2022-08-30T20:48:44.282Z,20.10
2022-08-30T20:51:16.126Z,20.00
2022-08-30T20:53:43.462Z,20.00
2022-08-30T20:56:19.113Z,19.90
2022-08-30T20:58:46.114Z,19.80
2022-08-30T21:01:13.812Z,19.70
2022-08-30T21:03:40.773Z,19.70
2022-08-30T21:06:07.671Z,19.70
2022-08-30T21:08:34.435Z,19.70
2022-08-30T21:11:01.076Z,19.70
2022-08-30T21:13:27.727Z,19.70
2022-08-30T21:15:56.158Z,19.70
2022-08-30T21:18:28.166Z,19.70
2022-08-30T21:20:55.742Z,19.60
2022-08-30T21:23:23.173Z,19.50
2022-08-30T21:25:49.810Z,19.40
2022-08-30T21:28:17.236Z,19.40
2022-08-30T21:30:44.573Z,19.30
2022-08-30T21:33:11.185Z,19.30
2022-08-30T21:35:37.799Z,19.30
2022-08-30T21:38:04.387Z,19.30
2022-08-30T21:40:31.045Z,19.30
2022-08-30T21:43:00.418Z,19.30
2022-08-30T21:45:29.131Z,19.30
2022-08-30T21:47:55.741Z,19.30
2022-08-30T21:50:22.333Z,19.30
2022-08-30T21:52:48.919Z,19.30
2022-08-30T21:55:15.615Z,19.30
2022-08-30T21:57:42.234Z,19.20
2022-08-30T22:00:09.711Z,19.20
2022-08-30T22:02:36.370Z,19.20
2022-08-30T22:05:03.211Z,19.10
2022-08-30T22:07:29.827Z,19.10
2022-08-30T22:09:56.450Z,19.10
2022-08-30T22:12:23.058Z,19.20
2022-08-30T22:14:52.571Z,19.20
2022-08-30T22:17:19.151Z,19.30
2022-08-30T22:19:45.796Z,19.50
2022-08-30T22:22:12.516Z,19.60
2022-08-30T22:24:39.114Z,19.60
2022-08-30T22:27:06.285Z,19.60
2022-08-30T22:29:33.174Z,19.60
2022-08-30T22:32:00.191Z,19.60
2022-08-30T22:34:27.429Z,19.50
2022-08-30T22:36:54.113Z,19.50
2022-08-30T22:39:20.722Z,19.40
2022-08-30T22:41:47.354Z,19.40
2022-08-30T22:44:14.002Z,19.40
2022-08-30T22:46:40.801Z,19.40
2022-08-30T22:49:09.220Z,19.40
2022-08-30T22:51:36.747Z,19.40
2022-08-30T22:54:05.458Z,19.30
2022-08-30T22:56:34.026Z,19.20
2022-08-30T22:59:00.697Z,19.20
2022-08-30T23:01:36.355Z,19.20
2022-08-30T23:04:04.553Z,19.20
2022-08-30T23:06:31.384Z,19.20
2022-08-30T23:08:58.112Z,19.20
2022-08-30T23:11:25.139Z,19.00
2022-08-30T23:13:52.220Z,18.90
2022-08-30T23:16:19.470Z,18.90
2022-08-30T23:18:46.483Z,18.90
2022-08-30T23:21:19.882Z,18.90
2022-08-30T23:23:46.597Z,19.00
2022-08-30T23:26:13.185Z,18.90
2022-08-30T23:28:39.785Z,19.00
2022-08-30T23:31:11.696Z,19.10
2022-08-30T23:33:38.303Z,19.10
2022-08-30T23:36:10.192Z,19.00
2022-08-30T23:38:36.958Z,19.00
2022-08-30T23:41:03.598Z,19.00
2022-08-30T23:43:30.211Z,19.00
2022-08-30T23:45:56.931Z,19.10
2022-08-30T23:48:23.558Z,19.00
2022-08-30T23:50:50.160Z,19.00
2022-08-30T23:53:16.866Z,19.00
2022-08-30T23:55:43.603Z,19.00
2022-08-30T23:58:10.227Z,19.00
